sensor_id;sensor_type;location;lat;lon;timestamp;P1;durP1;ratioP1;P2;durP2;ratioP2
59872;SDS011;50750;51.636;4.948;2023-07-02T00:01:47;6.00;;;3.20;;
59872;SDS011;50750;51.636;4.948;2023-07-02T00:04:14;6.40;;;3.10;;
59872;SDS011;50750;51.636;4.948;2023-07-02T00:06:46;7.00;;;3.00;;
59872;SDS011;50750;51.636;4.948;2023-07-02T00:09:12;5.20;;;2.70;;
59872;SDS011;50750;51.636;4.948;2023-07-02T00:11:41;7.00;;;3.20;;
59872;SDS011;50750;51.636;4.948;2023-07-02T00:16:41;6.40;;;2.80;;
59872;SDS011;50750;51.636;4.948;2023-07-02T00:19:09;5.50;;;2.90;;
59872;SDS011;50750;51.636;4.948;2023-07-02T00:21:36;5.50;;;3.00;;
59872;SDS011;50750;51.636;4.948;2023-07-02T00:24:03;6.20;;;3.20;;
59872;SDS011;50750;51.636;4.948;2023-07-02T00:26:30;5.60;;;3.30;;
59872;SDS011;50750;51.636;4.948;2023-07-02T00:28:56;6.40;;;3.50;;
59872;SDS011;50750;51.636;4.948;2023-07-02T00:31:23;6.20;;;3.30;;
59872;SDS011;50750;51.636;4.948;2023-07-02T00:33:50;7.30;;;3.50;;
59872;SDS011;50750;51.636;4.948;2023-07-02T00:36:17;7.90;;;3.70;;
59872;SDS011;50750;51.636;4.948;2023-07-02T00:38:46;6.80;;;3.30;;
59872;SDS011;50750;51.636;4.948;2023-07-02T00:41:14;6.30;;;3.50;;
59872;SDS011;50750;51.636;4.948;2023-07-02T00:43:42;6.50;;;4.00;;
59872;SDS011;50750;51.636;4.948;2023-07-02T00:46:13;7.20;;;3.90;;
59872;SDS011;50750;51.636;4.948;2023-07-02T00:48:46;7.40;;;4.10;;
59872;SDS011;50750;51.636;4.948;2023-07-02T00:51:14;6.90;;;4.30;;
59872;SDS011;50750;51.636;4.948;2023-07-02T00:53:46;6.40;;;3.90;;
59872;SDS011;50750;51.636;4.948;2023-07-02T00:56:13;9.20;;;4.80;;
59872;SDS011;50750;51.636;4.948;2023-07-02T00:58:40;6.80;;;4.10;;
59872;SDS011;50750;51.636;4.948;2023-07-02T01:01:15;8.10;;;4.70;;
59872;SDS011;50750;51.636;4.948;2023-07-02T01:04:01;7.40;;;4.30;;
59872;SDS011;50750;51.636;4.948;2023-07-02T01:06:32;6.30;;;3.80;;
59872;SDS011;50750;51.636;4.948;2023-07-02T01:09:00;7.00;;;4.40;;
59872;SDS011;50750;51.636;4.948;2023-07-02T01:11:41;6.40;;;4.10;;
59872;SDS011;50750;51.636;4.948;2023-07-02T01:14:12;7.50;;;4.00;;
59872;SDS011;50750;51.636;4.948;2023-07-02T01:16:43;7.90;;;4.30;;
59872;SDS011;50750;51.636;4.948;2023-07-02T01:22:27;7.50;;;4.10;;
59872;SDS011;50750;51.636;4.948;2023-07-02T01:24:55;8.00;;;4.40;;
59872;SDS011;50750;51.636;4.948;2023-07-02T01:27:22;9.10;;;4.70;;
59872;SDS011;50750;51.636;4.948;2023-07-02T01:29:52;7.40;;;4.40;;
59872;SDS011;50750;51.636;4.948;2023-07-02T01:32:19;7.30;;;4.50;;
59872;SDS011;50750;51.636;4.948;2023-07-02T01:34:46;8.10;;;4.30;;
59872;SDS011;50750;51.636;4.948;2023-07-02T01:37:15;7.40;;;4.70;;
59872;SDS011;50750;51.636;4.948;2023-07-02T01:39:45;8.70;;;4.30;;
59872;SDS011;50750;51.636;4.948;2023-07-02T01:42:13;7.60;;;4.70;;
59872;SDS011;50750;51.636;4.948;2023-07-02T01:44:45;6.10;;;4.20;;
59872;SDS011;50750;51.636;4.948;2023-07-02T01:47:13;7.90;;;4.80;;
59872;SDS011;50750;51.636;4.948;2023-07-02T01:49:40;6.80;;;4.50;;
59872;SDS011;50750;51.636;4.948;2023-07-02T01:52:06;7.60;;;4.60;;
59872;SDS011;50750;51.636;4.948;2023-07-02T01:54:34;9.70;;;4.60;;
59872;SDS011;50750;51.636;4.948;2023-07-02T01:57:01;7.80;;;4.50;;
59872;SDS011;50750;51.636;4.948;2023-07-02T01:59:28;6.80;;;4.50;;
59872;SDS011;50750;51.636;4.948;2023-07-02T02:01:54;8.30;;;4.50;;
59872;SDS011;50750;51.636;4.948;2023-07-02T02:04:21;6.90;;;4.40;;
59872;SDS011;50750;51.636;4.948;2023-07-02T02:06:47;7.40;;;4.40;;
59872;SDS011;50750;51.636;4.948;2023-07-02T02:09:13;7.90;;;4.70;;
59872;SDS011;50750;51.636;4.948;2023-07-02T02:11:44;8.00;;;4.30;;
59872;SDS011;50750;51.636;4.948;2023-07-02T02:14:12;8.70;;;4.60;;
59872;SDS011;50750;51.636;4.948;2023-07-02T02:16:38;7.90;;;4.40;;
59872;SDS011;50750;51.636;4.948;2023-07-02T02:19:05;6.50;;;4.40;;
59872;SDS011;50750;51.636;4.948;2023-07-02T02:21:32;8.20;;;4.70;;
59872;SDS011;50750;51.636;4.948;2023-07-02T02:23:58;7.20;;;4.40;;
59872;SDS011;50750;51.636;4.948;2023-07-02T02:26:25;7.10;;;4.20;;
59872;SDS011;50750;51.636;4.948;2023-07-02T02:28:51;6.30;;;4.10;;
59872;SDS011;50750;51.636;4.948;2023-07-02T02:31:18;6.50;;;4.20;;
59872;SDS011;50750;51.636;4.948;2023-07-02T02:33:45;7.30;;;4.30;;
59872;SDS011;50750;51.636;4.948;2023-07-02T02:36:11;8.30;;;4.40;;
59872;SDS011;50750;51.636;4.948;2023-07-02T02:38:38;8.70;;;4.70;;
59872;SDS011;50750;51.636;4.948;2023-07-02T02:41:04;7.00;;;4.60;;
59872;SDS011;50750;51.636;4.948;2023-07-02T02:43:34;6.90;;;4.50;;
59872;SDS011;50750;51.636;4.948;2023-07-02T02:46:00;8.20;;;4.40;;
59872;SDS011;50750;51.636;4.948;2023-07-02T02:48:27;7.40;;;4.60;;
59872;SDS011;50750;51.636;4.948;2023-07-02T02:50:53;8.30;;;3.90;;
59872;SDS011;50750;51.636;4.948;2023-07-02T02:53:19;6.40;;;4.00;;
59872;SDS011;50750;51.636;4.948;2023-07-02T02:55:46;6.40;;;4.10;;
59872;SDS011;50750;51.636;4.948;2023-07-02T02:58:12;8.20;;;4.40;;
59872;SDS011;50750;51.636;4.948;2023-07-02T03:00:39;7.70;;;4.40;;
59872;SDS011;50750;51.636;4.948;2023-07-02T03:03:08;7.10;;;4.10;;
59872;SDS011;50750;51.636;4.948;2023-07-02T03:05:35;6.80;;;4.20;;
59872;SDS011;50750;51.636;4.948;2023-07-02T03:08:01;6.50;;;4.00;;
59872;SDS011;50750;51.636;4.948;2023-07-02T03:10:27;7.90;;;4.70;;
59872;SDS011;50750;51.636;4.948;2023-07-02T03:12:54;7.10;;;4.60;;
59872;SDS011;50750;51.636;4.948;2023-07-02T03:15:20;8.50;;;4.70;;
59872;SDS011;50750;51.636;4.948;2023-07-02T03:17:47;7.30;;;4.40;;
59872;SDS011;50750;51.636;4.948;2023-07-02T03:20:13;7.30;;;4.20;;
59872;SDS011;50750;51.636;4.948;2023-07-02T03:22:40;7.10;;;4.10;;
59872;SDS011;50750;51.636;4.948;2023-07-02T03:25:06;6.90;;;3.80;;
59872;SDS011;50750;51.636;4.948;2023-07-02T03:27:33;7.40;;;4.20;;
59872;SDS011;50750;51.636;4.948;2023-07-02T03:29:59;6.30;;;4.00;;
59872;SDS011;50750;51.636;4.948;2023-07-02T03:32:26;7.00;;;4.00;;
59872;SDS011;50750;51.636;4.948;2023-07-02T03:34:52;7.30;;;3.90;;
59872;SDS011;50750;51.636;4.948;2023-07-02T03:37:18;6.60;;;4.00;;
59872;SDS011;50750;51.636;4.948;2023-07-02T03:39:45;6.70;;;4.10;;
59872;SDS011;50750;51.636;4.948;2023-07-02T03:42:11;7.20;;;4.20;;
59872;SDS011;50750;51.636;4.948;2023-07-02T03:44:37;7.40;;;4.40;;
59872;SDS011;50750;51.636;4.948;2023-07-02T03:47:04;6.60;;;4.10;;
59872;SDS011;50750;51.636;4.948;2023-07-02T03:49:31;7.10;;;4.40;;
59872;SDS011;50750;51.636;4.948;2023-07-02T03:51:57;7.80;;;4.30;;
59872;SDS011;50750;51.636;4.948;2023-07-02T03:54:24;7.00;;;4.30;;
59872;SDS011;50750;51.636;4.948;2023-07-02T03:56:50;7.30;;;4.50;;
59872;SDS011;50750;51.636;4.948;2023-07-02T03:59:16;6.70;;;3.90;;
59872;SDS011;50750;51.636;4.948;2023-07-02T04:01:43;7.60;;;3.90;;
59872;SDS011;50750;51.636;4.948;2023-07-02T04:04:10;6.40;;;4.30;;
59872;SDS011;50750;51.636;4.948;2023-07-02T04:06:37;7.10;;;4.20;;
59872;SDS011;50750;51.636;4.948;2023-07-02T04:09:04;7.80;;;4.00;;
59872;SDS011;50750;51.636;4.948;2023-07-02T04:11:30;7.00;;;4.00;;
59872;SDS011;50750;51.636;4.948;2023-07-02T04:13:57;7.30;;;3.80;;
59872;SDS011;50750;51.636;4.948;2023-07-02T04:16:23;7.60;;;4.20;;
59872;SDS011;50750;51.636;4.948;2023-07-02T04:18:49;6.70;;;4.20;;
59872;SDS011;50750;51.636;4.948;2023-07-02T04:21:16;5.70;;;3.90;;
59872;SDS011;50750;51.636;4.948;2023-07-02T04:23:42;7.40;;;4.10;;
59872;SDS011;50750;51.636;4.948;2023-07-02T04:26:08;6.30;;;3.70;;
59872;SDS011;50750;51.636;4.948;2023-07-02T04:28:35;6.80;;;4.10;;
59872;SDS011;50750;51.636;4.948;2023-07-02T04:31:01;6.90;;;4.30;;
59872;SDS011;50750;51.636;4.948;2023-07-02T04:33:27;7.20;;;4.10;;
59872;SDS011;50750;51.636;4.948;2023-07-02T04:36:04;5.50;;;3.70;;
59872;SDS011;50750;51.636;4.948;2023-07-02T04:38:31;7.30;;;3.90;;
59872;SDS011;50750;51.636;4.948;2023-07-02T04:40:57;6.60;;;3.60;;
59872;SDS011;50750;51.636;4.948;2023-07-02T04:43:27;8.00;;;4.00;;
59872;SDS011;50750;51.636;4.948;2023-07-02T04:45:57;7.90;;;4.40;;
59872;SDS011;50750;51.636;4.948;2023-07-02T04:48:23;6.60;;;4.00;;
59872;SDS011;50750;51.636;4.948;2023-07-02T04:50:50;7.40;;;4.10;;
59872;SDS011;50750;51.636;4.948;2023-07-02T04:53:16;7.60;;;4.30;;
59872;SDS011;50750;51.636;4.948;2023-07-02T04:55:43;7.40;;;4.10;;
59872;SDS011;50750;51.636;4.948;2023-07-02T04:58:10;6.70;;;3.90;;
59872;SDS011;50750;51.636;4.948;2023-07-02T05:00:36;7.60;;;4.20;;
59872;SDS011;50750;51.636;4.948;2023-07-02T05:03:03;6.70;;;4.20;;
59872;SDS011;50750;51.636;4.948;2023-07-02T05:05:30;7.20;;;4.30;;
59872;SDS011;50750;51.636;4.948;2023-07-02T05:07:56;6.10;;;4.30;;
59872;SDS011;50750;51.636;4.948;2023-07-02T05:10:23;7.50;;;3.90;;
59872;SDS011;50750;51.636;4.948;2023-07-02T05:12:49;6.10;;;3.60;;
59872;SDS011;50750;51.636;4.948;2023-07-02T05:15:15;6.50;;;4.20;;
59872;SDS011;50750;51.636;4.948;2023-07-02T05:17:42;6.00;;;3.70;;
59872;SDS011;50750;51.636;4.948;2023-07-02T05:20:09;7.10;;;4.40;;
59872;SDS011;50750;51.636;4.948;2023-07-02T05:22:36;6.80;;;3.80;;
59872;SDS011;50750;51.636;4.948;2023-07-02T05:25:02;7.20;;;4.00;;
59872;SDS011;50750;51.636;4.948;2023-07-02T05:27:29;7.60;;;4.40;;
59872;SDS011;50750;51.636;4.948;2023-07-02T05:29:55;6.50;;;3.80;;
59872;SDS011;50750;51.636;4.948;2023-07-02T05:32:22;6.80;;;4.20;;
59872;SDS011;50750;51.636;4.948;2023-07-02T05:34:48;9.00;;;4.30;;
59872;SDS011;50750;51.636;4.948;2023-07-02T05:37:15;7.80;;;4.00;;
59872;SDS011;50750;51.636;4.948;2023-07-02T05:39:41;6.80;;;4.00;;
59872;SDS011;50750;51.636;4.948;2023-07-02T05:42:08;8.00;;;4.30;;
59872;SDS011;50750;51.636;4.948;2023-07-02T05:44:34;6.70;;;4.00;;
59872;SDS011;50750;51.636;4.948;2023-07-02T05:47:00;7.00;;;4.10;;
59872;SDS011;50750;51.636;4.948;2023-07-02T05:49:27;7.10;;;4.20;;
59872;SDS011;50750;51.636;4.948;2023-07-02T05:51:53;7.80;;;4.20;;
59872;SDS011;50750;51.636;4.948;2023-07-02T05:54:20;7.70;;;4.30;;
59872;SDS011;50750;51.636;4.948;2023-07-02T05:56:46;6.70;;;4.20;;
59872;SDS011;50750;51.636;4.948;2023-07-02T05:59:12;8.20;;;4.10;;
59872;SDS011;50750;51.636;4.948;2023-07-02T06:01:43;6.40;;;3.70;;
59872;SDS011;50750;51.636;4.948;2023-07-02T06:04:10;7.00;;;4.20;;
59872;SDS011;50750;51.636;4.948;2023-07-02T06:06:36;6.40;;;3.90;;
59872;SDS011;50750;51.636;4.948;2023-07-02T06:09:02;6.80;;;3.90;;
59872;SDS011;50750;51.636;4.948;2023-07-02T06:11:30;7.60;;;4.00;;
59872;SDS011;50750;51.636;4.948;2023-07-02T06:13:56;6.90;;;3.80;;
59872;SDS011;50750;51.636;4.948;2023-07-02T06:16:23;6.60;;;4.00;;
59872;SDS011;50750;51.636;4.948;2023-07-02T06:18:49;7.60;;;3.70;;
59872;SDS011;50750;51.636;4.948;2023-07-02T06:21:15;7.20;;;4.10;;
59872;SDS011;50750;51.636;4.948;2023-07-02T06:23:42;7.20;;;4.30;;
59872;SDS011;50750;51.636;4.948;2023-07-02T06:26:09;6.50;;;4.10;;
59872;SDS011;50750;51.636;4.948;2023-07-02T06:28:37;6.50;;;3.90;;
59872;SDS011;50750;51.636;4.948;2023-07-02T06:31:04;6.90;;;4.00;;
59872;SDS011;50750;51.636;4.948;2023-07-02T06:33:31;8.30;;;4.00;;
59872;SDS011;50750;51.636;4.948;2023-07-02T06:35:58;6.70;;;4.00;;
59872;SDS011;50750;51.636;4.948;2023-07-02T06:38:24;7.00;;;3.90;;
59872;SDS011;50750;51.636;4.948;2023-07-02T06:40:50;7.50;;;4.10;;
59872;SDS011;50750;51.636;4.948;2023-07-02T06:43:17;7.90;;;4.10;;
59872;SDS011;50750;51.636;4.948;2023-07-02T06:45:43;6.40;;;4.00;;
59872;SDS011;50750;51.636;4.948;2023-07-02T06:48:10;6.40;;;4.30;;
59872;SDS011;50750;51.636;4.948;2023-07-02T06:50:36;7.50;;;3.80;;
59872;SDS011;50750;51.636;4.948;2023-07-02T06:53:02;9.10;;;4.30;;
59872;SDS011;50750;51.636;4.948;2023-07-02T06:55:29;7.00;;;3.90;;
59872;SDS011;50750;51.636;4.948;2023-07-02T06:57:56;7.80;;;4.00;;
59872;SDS011;50750;51.636;4.948;2023-07-02T07:00:22;7.50;;;4.20;;
59872;SDS011;50750;51.636;4.948;2023-07-02T07:02:49;6.90;;;3.90;;
59872;SDS011;50750;51.636;4.948;2023-07-02T07:05:15;7.00;;;3.90;;
59872;SDS011;50750;51.636;4.948;2023-07-02T07:07:41;6.50;;;4.00;;
59872;SDS011;50750;51.636;4.948;2023-07-02T07:10:08;7.80;;;4.30;;
59872;SDS011;50750;51.636;4.948;2023-07-02T07:12:34;7.60;;;4.20;;
59872;SDS011;50750;51.636;4.948;2023-07-02T07:15:01;8.10;;;4.30;;
59872;SDS011;50750;51.636;4.948;2023-07-02T07:17:28;8.20;;;4.30;;
59872;SDS011;50750;51.636;4.948;2023-07-02T07:19:55;9.70;;;4.10;;
59872;SDS011;50750;51.636;4.948;2023-07-02T07:22:21;6.80;;;3.70;;
59872;SDS011;50750;51.636;4.948;2023-07-02T07:24:48;7.50;;;4.20;;
59872;SDS011;50750;51.636;4.948;2023-07-02T07:27:14;8.00;;;3.80;;
59872;SDS011;50750;51.636;4.948;2023-07-02T07:29:40;8.00;;;4.10;;
59872;SDS011;50750;51.636;4.948;2023-07-02T07:32:07;7.40;;;3.80;;
59872;SDS011;50750;51.636;4.948;2023-07-02T07:34:34;7.20;;;3.80;;
59872;SDS011;50750;51.636;4.948;2023-07-02T07:37:00;8.00;;;4.00;;
59872;SDS011;50750;51.636;4.948;2023-07-02T07:39:26;7.60;;;4.20;;
59872;SDS011;50750;51.636;4.948;2023-07-02T07:41:53;7.30;;;3.70;;
59872;SDS011;50750;51.636;4.948;2023-07-02T07:44:19;6.50;;;3.70;;
59872;SDS011;50750;51.636;4.948;2023-07-02T07:46:46;7.70;;;3.80;;
59872;SDS011;50750;51.636;4.948;2023-07-02T07:49:12;7.00;;;3.80;;
59872;SDS011;50750;51.636;4.948;2023-07-02T07:51:39;6.50;;;3.80;;
59872;SDS011;50750;51.636;4.948;2023-07-02T07:54:06;7.30;;;3.80;;
59872;SDS011;50750;51.636;4.948;2023-07-02T07:56:33;7.10;;;3.70;;
59872;SDS011;50750;51.636;4.948;2023-07-02T07:58:59;9.20;;;4.40;;
59872;SDS011;50750;51.636;4.948;2023-07-02T08:01:26;6.20;;;3.50;;
59872;SDS011;50750;51.636;4.948;2023-07-02T08:03:53;6.90;;;3.90;;
59872;SDS011;50750;51.636;4.948;2023-07-02T08:06:20;7.50;;;4.00;;
59872;SDS011;50750;51.636;4.948;2023-07-02T08:08:46;7.00;;;4.00;;
59872;SDS011;50750;51.636;4.948;2023-07-02T08:11:13;6.00;;;3.60;;
59872;SDS011;50750;51.636;4.948;2023-07-02T08:13:39;7.20;;;3.60;;
59872;SDS011;50750;51.636;4.948;2023-07-02T08:16:05;7.20;;;3.90;;
59872;SDS011;50750;51.636;4.948;2023-07-02T08:18:32;5.90;;;3.40;;
59872;SDS011;50750;51.636;4.948;2023-07-02T08:20:58;6.20;;;3.80;;
59872;SDS011;50750;51.636;4.948;2023-07-02T08:23:25;7.50;;;4.00;;
59872;SDS011;50750;51.636;4.948;2023-07-02T08:25:51;7.50;;;3.80;;
59872;SDS011;50750;51.636;4.948;2023-07-02T08:28:17;6.50;;;3.90;;
59872;SDS011;50750;51.636;4.948;2023-07-02T08:30:44;7.30;;;3.50;;
59872;SDS011;50750;51.636;4.948;2023-07-02T08:33:10;7.10;;;3.70;;
59872;SDS011;50750;51.636;4.948;2023-07-02T08:35:37;6.70;;;3.40;;
59872;SDS011;50750;51.636;4.948;2023-07-02T08:38:03;7.10;;;3.60;;
59872;SDS011;50750;51.636;4.948;2023-07-02T08:40:30;8.30;;;4.00;;
59872;SDS011;50750;51.636;4.948;2023-07-02T08:42:57;7.60;;;3.60;;
59872;SDS011;50750;51.636;4.948;2023-07-02T08:45:25;6.60;;;3.50;;
59872;SDS011;50750;51.636;4.948;2023-07-02T08:47:51;8.40;;;3.40;;
59872;SDS011;50750;51.636;4.948;2023-07-02T08:50:22;7.30;;;3.80;;
59872;SDS011;50750;51.636;4.948;2023-07-02T08:52:49;8.90;;;3.50;;
59872;SDS011;50750;51.636;4.948;2023-07-02T08:55:16;6.80;;;3.70;;
59872;SDS011;50750;51.636;4.948;2023-07-02T08:57:47;8.10;;;3.90;;
59872;SDS011;50750;51.636;4.948;2023-07-02T09:00:16;8.40;;;3.60;;
59872;SDS011;50750;51.636;4.948;2023-07-02T09:02:42;7.80;;;3.20;;
59872;SDS011;50750;51.636;4.948;2023-07-02T09:05:09;6.60;;;3.20;;
59872;SDS011;50750;51.636;4.948;2023-07-02T09:07:45;7.40;;;3.60;;
59872;SDS011;50750;51.636;4.948;2023-07-02T09:10:12;7.60;;;3.90;;
59872;SDS011;50750;51.636;4.948;2023-07-02T09:13:02;6.20;;;3.50;;
59872;SDS011;50750;51.636;4.948;2023-07-02T09:15:38;7.70;;;3.60;;
59872;SDS011;50750;51.636;4.948;2023-07-02T09:20:44;12.70;;;4.20;;
59872;SDS011;50750;51.636;4.948;2023-07-02T09:23:11;9.60;;;4.30;;
59872;SDS011;50750;51.636;4.948;2023-07-02T09:25:38;10.90;;;4.50;;
59872;SDS011;50750;51.636;4.948;2023-07-02T09:28:19;8.20;;;3.60;;
59872;SDS011;50750;51.636;4.948;2023-07-02T09:30:52;8.50;;;4.10;;
59872;SDS011;50750;51.636;4.948;2023-07-02T09:33:21;8.00;;;3.80;;
59872;SDS011;50750;51.636;4.948;2023-07-02T09:35:49;13.00;;;4.30;;
59872;SDS011;50750;51.636;4.948;2023-07-02T09:38:20;8.20;;;3.90;;
59872;SDS011;50750;51.636;4.948;2023-07-02T09:40:51;6.60;;;3.80;;
59872;SDS011;50750;51.636;4.948;2023-07-02T09:43:18;7.60;;;3.80;;
59872;SDS011;50750;51.636;4.948;2023-07-02T09:45:46;9.10;;;3.90;;
59872;SDS011;50750;51.636;4.948;2023-07-02T09:48:14;8.00;;;4.20;;
59872;SDS011;50750;51.636;4.948;2023-07-02T09:50:45;6.50;;;3.50;;
59872;SDS011;50750;51.636;4.948;2023-07-02T09:53:13;11.40;;;4.30;;
59872;SDS011;50750;51.636;4.948;2023-07-02T09:55:41;9.80;;;4.10;;
59872;SDS011;50750;51.636;4.948;2023-07-02T09:58:08;8.50;;;4.60;;
59872;SDS011;50750;51.636;4.948;2023-07-02T10:00:36;7.00;;;3.90;;
59872;SDS011;50750;51.636;4.948;2023-07-02T10:03:03;7.20;;;4.00;;
59872;SDS011;50750;51.636;4.948;2023-07-02T10:05:30;8.20;;;3.80;;
59872;SDS011;50750;51.636;4.948;2023-07-02T10:07:58;9.10;;;4.10;;
59872;SDS011;50750;51.636;4.948;2023-07-02T10:10:38;8.10;;;3.80;;
59872;SDS011;50750;51.636;4.948;2023-07-02T10:13:05;9.50;;;4.10;;
59872;SDS011;50750;51.636;4.948;2023-07-02T10:15:32;6.90;;;3.70;;
59872;SDS011;50750;51.636;4.948;2023-07-02T10:18:03;9.50;;;4.90;;
59872;SDS011;50750;51.636;4.948;2023-07-02T10:20:34;9.20;;;4.10;;
59872;SDS011;50750;51.636;4.948;2023-07-02T10:23:01;7.80;;;3.70;;
59872;SDS011;50750;51.636;4.948;2023-07-02T10:25:35;7.40;;;4.00;;
59872;SDS011;50750;51.636;4.948;2023-07-02T10:28:16;7.30;;;3.60;;
59872;SDS011;50750;51.636;4.948;2023-07-02T10:30:44;7.00;;;3.80;;
59872;SDS011;50750;51.636;4.948;2023-07-02T10:33:11;8.20;;;4.00;;
59872;SDS011;50750;51.636;4.948;2023-07-02T10:35:43;8.10;;;3.90;;
59872;SDS011;50750;51.636;4.948;2023-07-02T10:38:13;8.40;;;3.90;;
59872;SDS011;50750;51.636;4.948;2023-07-02T10:40:53;9.50;;;4.10;;
59872;SDS011;50750;51.636;4.948;2023-07-02T10:43:26;7.70;;;4.10;;
59872;SDS011;50750;51.636;4.948;2023-07-02T10:45:54;7.60;;;3.80;;
59872;SDS011;50750;51.636;4.948;2023-07-02T10:48:21;6.70;;;4.00;;
59872;SDS011;50750;51.636;4.948;2023-07-02T10:50:48;8.00;;;3.90;;
59872;SDS011;50750;51.636;4.948;2023-07-02T10:53:15;7.60;;;4.00;;
59872;SDS011;50750;51.636;4.948;2023-07-02T10:55:42;8.10;;;4.00;;
59872;SDS011;50750;51.636;4.948;2023-07-02T10:58:10;6.80;;;3.80;;
59872;SDS011;50750;51.636;4.948;2023-07-02T11:00:49;6.90;;;3.80;;
59872;SDS011;50750;51.636;4.948;2023-07-02T11:05:44;6.40;;;3.50;;
59872;SDS011;50750;51.636;4.948;2023-07-02T11:08:11;7.60;;;3.90;;
59872;SDS011;50750;51.636;4.948;2023-07-02T11:10:38;6.60;;;3.80;;
59872;SDS011;50750;51.636;4.948;2023-07-02T11:13:14;8.00;;;3.70;;
59872;SDS011;50750;51.636;4.948;2023-07-02T11:15:42;8.60;;;3.90;;
59872;SDS011;50750;51.636;4.948;2023-07-02T11:18:13;6.50;;;3.70;;
59872;SDS011;50750;51.636;4.948;2023-07-02T11:20:41;6.10;;;3.50;;
59872;SDS011;50750;51.636;4.948;2023-07-02T11:23:19;9.10;;;4.20;;
59872;SDS011;50750;51.636;4.948;2023-07-02T11:25:54;6.90;;;3.60;;
59872;SDS011;50750;51.636;4.948;2023-07-02T11:28:25;7.00;;;3.90;;
59872;SDS011;50750;51.636;4.948;2023-07-02T11:30:53;5.70;;;3.20;;
59872;SDS011;50750;51.636;4.948;2023-07-02T11:33:20;6.10;;;3.20;;
59872;SDS011;50750;51.636;4.948;2023-07-02T11:36:05;6.40;;;3.60;;
59872;SDS011;50750;51.636;4.948;2023-07-02T11:38:33;6.20;;;3.20;;
59872;SDS011;50750;51.636;4.948;2023-07-02T11:41:05;7.40;;;3.60;;
59872;SDS011;50750;51.636;4.948;2023-07-02T11:43:32;6.90;;;3.50;;
59872;SDS011;50750;51.636;4.948;2023-07-02T11:45:58;6.20;;;3.30;;
59872;SDS011;50750;51.636;4.948;2023-07-02T11:48:25;6.20;;;3.40;;
59872;SDS011;50750;51.636;4.948;2023-07-02T11:50:51;6.40;;;3.10;;
59872;SDS011;50750;51.636;4.948;2023-07-02T11:53:18;7.20;;;3.20;;
59872;SDS011;50750;51.636;4.948;2023-07-02T11:55:44;6.50;;;3.30;;
59872;SDS011;50750;51.636;4.948;2023-07-02T11:58:10;5.70;;;3.30;;
59872;SDS011;50750;51.636;4.948;2023-07-02T12:00:37;7.00;;;3.40;;
59872;SDS011;50750;51.636;4.948;2023-07-02T12:03:03;6.90;;;3.40;;
59872;SDS011;50750;51.636;4.948;2023-07-02T12:05:30;6.20;;;3.20;;
59872;SDS011;50750;51.636;4.948;2023-07-02T12:07:56;7.60;;;3.70;;
59872;SDS011;50750;51.636;4.948;2023-07-02T12:10:23;7.10;;;3.50;;
59872;SDS011;50750;51.636;4.948;2023-07-02T12:12:49;6.80;;;3.30;;
59872;SDS011;50750;51.636;4.948;2023-07-02T12:15:16;6.80;;;3.40;;
59872;SDS011;50750;51.636;4.948;2023-07-02T12:17:42;6.10;;;3.30;;
59872;SDS011;50750;51.636;4.948;2023-07-02T12:20:09;6.70;;;3.40;;
59872;SDS011;50750;51.636;4.948;2023-07-02T12:22:35;8.10;;;3.50;;
59872;SDS011;50750;51.636;4.948;2023-07-02T12:25:02;6.50;;;3.30;;
59872;SDS011;50750;51.636;4.948;2023-07-02T12:27:28;6.80;;;3.80;;
59872;SDS011;50750;51.636;4.948;2023-07-02T12:29:55;6.30;;;3.50;;
59872;SDS011;50750;51.636;4.948;2023-07-02T12:32:22;5.30;;;3.10;;
59872;SDS011;50750;51.636;4.948;2023-07-02T12:34:49;6.50;;;3.20;;
59872;SDS011;50750;51.636;4.948;2023-07-02T12:37:15;6.70;;;3.30;;
59872;SDS011;50750;51.636;4.948;2023-07-02T12:39:43;6.80;;;3.60;;
59872;SDS011;50750;51.636;4.948;2023-07-02T12:42:10;6.60;;;3.50;;
59872;SDS011;50750;51.636;4.948;2023-07-02T12:44:37;7.50;;;3.60;;
59872;SDS011;50750;51.636;4.948;2023-07-02T12:47:04;6.80;;;3.70;;
59872;SDS011;50750;51.636;4.948;2023-07-02T12:49:30;7.20;;;3.50;;
59872;SDS011;50750;51.636;4.948;2023-07-02T12:51:57;6.50;;;3.20;;
59872;SDS011;50750;51.636;4.948;2023-07-02T12:54:23;7.40;;;3.80;;
59872;SDS011;50750;51.636;4.948;2023-07-02T12:56:49;7.00;;;3.40;;
59872;SDS011;50750;51.636;4.948;2023-07-02T12:59:16;7.30;;;3.30;;
59872;SDS011;50750;51.636;4.948;2023-07-02T13:01:42;6.60;;;3.30;;
59872;SDS011;50750;51.636;4.948;2023-07-02T13:04:08;6.70;;;3.30;;
59872;SDS011;50750;51.636;4.948;2023-07-02T13:06:35;7.80;;;3.20;;
59872;SDS011;50750;51.636;4.948;2023-07-02T13:09:06;8.80;;;3.70;;
59872;SDS011;50750;51.636;4.948;2023-07-02T13:11:34;7.10;;;3.50;;
59872;SDS011;50750;51.636;4.948;2023-07-02T13:14:00;7.10;;;3.50;;
59872;SDS011;50750;51.636;4.948;2023-07-02T13:16:27;7.90;;;3.40;;
59872;SDS011;50750;51.636;4.948;2023-07-02T13:18:53;6.60;;;3.20;;
59872;SDS011;50750;51.636;4.948;2023-07-02T13:21:22;6.50;;;3.30;;
59872;SDS011;50750;51.636;4.948;2023-07-02T13:23:49;7.40;;;3.30;;
59872;SDS011;50750;51.636;4.948;2023-07-02T13:26:15;6.30;;;3.20;;
59872;SDS011;50750;51.636;4.948;2023-07-02T13:28:42;6.70;;;3.50;;
59872;SDS011;50750;51.636;4.948;2023-07-02T13:31:09;5.70;;;3.20;;
59872;SDS011;50750;51.636;4.948;2023-07-02T13:33:37;7.80;;;3.50;;
59872;SDS011;50750;51.636;4.948;2023-07-02T13:36:04;7.20;;;3.70;;
59872;SDS011;50750;51.636;4.948;2023-07-02T13:38:32;7.70;;;3.50;;
59872;SDS011;50750;51.636;4.948;2023-07-02T13:40:58;7.10;;;3.00;;
59872;SDS011;50750;51.636;4.948;2023-07-02T13:43:25;6.60;;;3.30;;
59872;SDS011;50750;51.636;4.948;2023-07-02T13:45:52;8.20;;;3.80;;
59872;SDS011;50750;51.636;4.948;2023-07-02T13:48:18;7.90;;;3.70;;
59872;SDS011;50750;51.636;4.948;2023-07-02T13:50:45;6.60;;;3.60;;
59872;SDS011;50750;51.636;4.948;2023-07-02T13:53:11;7.80;;;3.70;;
59872;SDS011;50750;51.636;4.948;2023-07-02T13:55:37;7.50;;;3.30;;
59872;SDS011;50750;51.636;4.948;2023-07-02T13:58:04;7.30;;;3.70;;
59872;SDS011;50750;51.636;4.948;2023-07-02T14:00:31;8.30;;;3.40;;
59872;SDS011;50750;51.636;4.948;2023-07-02T14:02:57;6.90;;;3.20;;
59872;SDS011;50750;51.636;4.948;2023-07-02T14:05:24;6.50;;;3.20;;
59872;SDS011;50750;51.636;4.948;2023-07-02T14:07:51;8.00;;;3.40;;
59872;SDS011;50750;51.636;4.948;2023-07-02T14:10:18;6.20;;;3.20;;
59872;SDS011;50750;51.636;4.948;2023-07-02T14:12:44;7.60;;;3.50;;
59872;SDS011;50750;51.636;4.948;2023-07-02T14:15:11;6.90;;;3.30;;
59872;SDS011;50750;51.636;4.948;2023-07-02T14:17:37;7.80;;;3.10;;
59872;SDS011;50750;51.636;4.948;2023-07-02T14:20:04;7.00;;;3.30;;
59872;SDS011;50750;51.636;4.948;2023-07-02T14:22:32;7.30;;;3.20;;
59872;SDS011;50750;51.636;4.948;2023-07-02T14:24:58;7.70;;;3.30;;
59872;SDS011;50750;51.636;4.948;2023-07-02T14:27:24;6.80;;;3.70;;
59872;SDS011;50750;51.636;4.948;2023-07-02T14:29:51;7.00;;;3.50;;
59872;SDS011;50750;51.636;4.948;2023-07-02T14:32:17;8.70;;;3.40;;
59872;SDS011;50750;51.636;4.948;2023-07-02T14:34:44;8.60;;;3.50;;
59872;SDS011;50750;51.636;4.948;2023-07-02T14:37:11;7.30;;;3.60;;
59872;SDS011;50750;51.636;4.948;2023-07-02T14:39:37;7.90;;;3.10;;
59872;SDS011;50750;51.636;4.948;2023-07-02T14:42:03;7.20;;;3.60;;
59872;SDS011;50750;51.636;4.948;2023-07-02T14:44:32;6.80;;;3.50;;
59872;SDS011;50750;51.636;4.948;2023-07-02T14:46:59;9.50;;;3.40;;
59872;SDS011;50750;51.636;4.948;2023-07-02T14:49:25;6.10;;;3.20;;
59872;SDS011;50750;51.636;4.948;2023-07-02T14:51:52;7.20;;;3.30;;
59872;SDS011;50750;51.636;4.948;2023-07-02T14:54:18;8.00;;;3.30;;
59872;SDS011;50750;51.636;4.948;2023-07-02T14:56:45;7.70;;;3.60;;
59872;SDS011;50750;51.636;4.948;2023-07-02T14:59:11;6.80;;;3.60;;
59872;SDS011;50750;51.636;4.948;2023-07-02T15:01:40;7.00;;;3.30;;